Johns Island, SC (29455)

2:04 PM EDT on August 25, 2016 (GMT -0400)
Church Creek | | Change Station

Elev 36 ft 32.73 °N, 80.15 °W | Updated 2 minutes ago

Partly Cloudy
Partly Cloudy
88.7 °F
Feels Like 91 °F
N
2.9
Wind Variable Wind from NE
Gusts 9.0 mph

Today
High -- | Low -- °F
--% Chance of Precip.
Yesterday
High -- | Low -- °F
Precip. -- in
Pressure 30.14 in
Visibility 10.0 miles
Clouds Few 4200 ft
Few 4900 ft
Heat Index 91 °F
Dew Point 67 °F
Humidity 48%
Rainfall 0.00 in
Snow Depth Not available.
6:50 AM 7:53 PM
Last Quarter, 43% visible
METAR KJZI 251755Z AUTO 10011KT 10SM FEW042 FEW049 31/22 A3014 RMK AO2
Pressure 30.14 in
Visibility 10.0 miles
Clouds Few 4200 ft
Few 4900 ft
Heat Index 91 °F
Dew Point 67 °F
Humidity 48%
Rainfall 0.00 in
Snow Depth Not available.
6:50 AM 7:53 PM
Last Quarter, 43% visible
METAR KJZI 251755Z AUTO 10011KT 10SM FEW042 FEW049 31/22 A3014 RMK AO2
A tropical disturbance pushing toward the Bahamas, is expected to develop into a tropical depression or storm, and will likely target Florida and the Gulf Coast this weekend into next week.

Right now, the disturbance remains a broad area of low pressure pushing through the Dominican Republic and Haiti, headed toward the southeast Bahamas. Rainfall totals over 3 inches (with locally higher amounts) are expected in HispaƱiola, particularly over elevated terrain.

10-Day Weather Forecast

Almanac

Astronomy

Aug. 25, 2016 Rise Set
Actual Time
Civil Twilight
Nautical Twilight
Astronomical Twilight
Moon
Length of Visible Light
Length of Day
Tomorrow will be .
, % of the Moon is Illuminated

Today's Extremes

State Highs State Lows

Community

WunderPhotos

Upload Photos

1,934,890 photos uploaded!

WunderBlog® & News

Nearby

Air Quality

  Air Quality AQ Index Pollutant
Not available.

Snow Depth

Station Depth Elevation

Earthquake Activity

City Distance Mag. Time & Date
Minimum magnitude displayed is 2.5.

Coastal Water Temperatures

Place Temperature

Stations

Nearby Weather Stations

Station Location Temp. Windchill Dew Point Humidity Wind Precip. Elev Updated Type
                   

Watches & Warnings

There are currently no watches in effect.